Time;durP1;ratioP1;P1;durP2;ratioP2;P2;SDS_P1;SDS_P2;PMS_P1;PMS_P2;Temp;Humidity;BMP_temperature;BMP_pressure;BME280_temperature;BME280_humidity;BME280_pressure;Samples;Min_cycle;Max_cycle;Signal;HPM_P1;HPM_P2
2022/03/13 00:00:57;;;;;;;118.70;43.38;;;;;;;;;;6296195;28;20060;-62
2022/03/13 00:04:00;;;;;;;124.85;44.45;;;;;;;;;;6303874;28;20079;-62
2022/03/13 00:07:09;;;;;;;129.25;45.63;;;;;;;;;;6301884;28;20064;-62
2022/03/13 00:10:10;;;;;;;132.70;45.38;;;;;;;;;;6311790;28;20399;-62
2022/03/13 00:13:14;;;;;;;127.40;46.47;;;;;;;;;;6301878;28;20040;-62
2022/03/13 00:16:17;;;;;;;147.20;51.50;;;;;;;;;;6305642;28;20553;-63
2022/03/13 00:19:20;;;;;;;154.13;53.63;;;;;;;;;;6294292;28;20053;-62
2022/03/13 00:22:20;;;;;;;143.25;50.75;;;;;;;;;;6294858;28;20051;-62
2022/03/13 00:25:21;;;;;;;156.27;55.63;;;;;;;;;;6298964;28;20052;-62
2022/03/13 00:28:22;;;;;;;150.80;54.78;;;;;;;;;;6297421;28;20477;-61
2022/03/13 00:31:24;;;;;;;152.27;53.35;;;;;;;;;;6311929;28;20070;-61
2022/03/13 00:34:25;;;;;;;174.13;57.28;;;;;;;;;;6311862;28;20040;-63
2022/03/13 00:37:26;;;;;;;147.55;49.95;;;;;;;;;;6313537;28;20150;-61
2022/03/13 00:40:26;;;;;;;137.93;48.75;;;;;;;;;;6308927;28;20064;-62
2022/03/13 00:43:28;;;;;;;118.78;44.17;;;;;;;;;;6311478;28;20445;-62
2022/03/13 00:46:29;;;;;;;128.60;46.90;;;;;;;;;;6302929;28;20044;-62
2022/03/13 00:49:29;;;;;;;120.32;42.80;;;;;;;;;;6301526;28;20063;-62
2022/03/13 00:52:30;;;;;;;109.78;44.15;;;;;;;;;;6301107;28;20044;-62
2022/03/13 00:55:32;;;;;;;120.72;44.40;;;;;;;;;;6300159;28;20052;-62
2022/03/13 00:58:32;;;;;;;130.77;46.87;;;;;;;;;;6298365;28;20047;-63
2022/03/13 01:01:33;;;;;;;137.23;49.65;;;;;;;;;;6299493;28;20313;-62
2022/03/13 01:04:34;;;;;;;140.23;49.28;;;;;;;;;;6302008;28;20078;-62
2022/03/13 01:07:34;;;;;;;125.90;48.63;;;;;;;;;;6301013;28;20058;-62
2022/03/13 01:10:35;;;;;;;129.63;45.50;;;;;;;;;;6296421;28;20446;-63
2022/03/13 01:13:36;;;;;;;106.32;40.13;;;;;;;;;;6297422;28;20086;-62
2022/03/13 01:16:39;;;;;;;123.95;44.85;;;;;;;;;;6295922;28;20143;-63
2022/03/13 01:19:40;;;;;;;118.57;43.13;;;;;;;;;;6297317;28;20229;-63
2022/03/13 01:22:41;;;;;;;133.85;44.95;;;;;;;;;;6296265;28;20500;-63
2022/03/13 01:25:42;;;;;;;113.43;45.70;;;;;;;;;;6297766;28;20060;-60
2022/03/13 01:28:42;;;;;;;123.10;45.28;;;;;;;;;;6300302;28;20033;-63
2022/03/13 01:31:48;;;;;;;115.57;44.95;;;;;;;;;;6295795;28;20475;-61
2022/03/13 01:34:51;;;;;;;107.05;39.70;;;;;;;;;;6297820;28;20692;-61
2022/03/13 01:37:52;;;;;;;113.03;40.53;;;;;;;;;;6299673;28;20075;-61
2022/03/13 01:40:53;;;;;;;112.40;43.80;;;;;;;;;;6295781;28;20044;-62
2022/03/13 01:43:58;;;;;;;134.38;45.58;;;;;;;;;;6299943;28;20403;-62
2022/03/13 01:47:01;;;;;;;139.25;47.80;;;;;;;;;;6293986;28;20078;-61
2022/03/13 01:50:02;;;;;;;;;;;;;;;;;;6295324;28;20036;-61
2022/03/13 01:53:03;;;;;;;142.40;51.45;;;;;;;;;;6290887;28;19920;-60
2022/03/13 01:56:04;;;;;;;133.10;50.28;;;;;;;;;;6297785;28;20475;-61
2022/03/13 01:59:07;;;;;;;138.00;50.63;;;;;;;;;;6296105;28;20091;-61
2022/03/13 02:02:08;;;;;;;125.53;46.88;;;;;;;;;;6304225;28;20479;-61
2022/03/13 02:05:22;;;;;;;127.47;49.25;;;;;;;;;;6312608;28;20114;-60
2022/03/13 02:08:23;;;;;;;125.65;46.95;;;;;;;;;;6308524;28;20072;-60
2022/03/13 02:11:26;;;;;;;126.18;47.50;;;;;;;;;;6304942;28;20052;-61
2022/03/13 02:14:27;;;;;;;128.35;47.92;;;;;;;;;;6299186;28;20064;-62
2022/03/13 02:17:33;;;;;;;132.43;47.75;;;;;;;;;;6296185;28;20097;-61
2022/03/13 02:20:42;;;;;;;145.05;49.83;;;;;;;;;;6298670;28;20052;-62
2022/03/13 02:23:43;;;;;;;122.45;47.60;;;;;;;;;;6292990;28;20067;-61
2022/03/13 02:26:55;;;;;;;130.23;48.10;;;;;;;;;;6299132;28;20047;-61
2022/03/13 02:29:56;;;;;;;135.27;51.58;;;;;;;;;;6299022;28;20094;-61
2022/03/13 02:32:57;;;;;;;165.65;58.97;;;;;;;;;;6297143;28;20426;-61
2022/03/13 02:36:00;;;;;;;171.32;59.55;;;;;;;;;;6296032;28;20109;-63
2022/03/13 02:39:03;;;;;;;139.57;51.55;;;;;;;;;;6293312;28;20044;-61
2022/03/13 02:42:06;;;;;;;145.45;54.72;;;;;;;;;;6296854;28;20041;-63
2022/03/13 02:45:07;;;;;;;119.05;46.47;;;;;;;;;;6294529;28;20114;-62
2022/03/13 02:48:09;;;;;;;164.73;58.90;;;;;;;;;;6288243;28;20040;-61
2022/03/13 02:51:09;;;;;;;143.30;52.20;;;;;;;;;;6297676;28;20072;-62
2022/03/13 02:54:10;;;;;;;165.23;59.03;;;;;;;;;;6295368;28;20040;-63
2022/03/13 02:57:14;;;;;;;175.25;61.60;;;;;;;;;;6299384;28;20044;-62
2022/03/13 03:00:16;;;;;;;156.20;55.88;;;;;;;;;;6296215;28;20072;-62
2022/03/13 03:03:18;;;;;;;150.32;52.88;;;;;;;;;;6298457;28;20044;-60
2022/03/13 03:06:19;;;;;;;164.63;57.13;;;;;;;;;;6301198;28;20056;-62
2022/03/13 03:09:20;;;;;;;174.20;59.30;;;;;;;;;;6304084;28;20411;-63
2022/03/13 03:12:20;;;;;;;186.63;63.58;;;;;;;;;;6302859;28;20054;-64
2022/03/13 03:15:23;;;;;;;190.93;66.80;;;;;;;;;;6299961;28;20052;-63
2022/03/13 03:18:23;;;;;;;167.77;57.78;;;;;;;;;;6299193;28;20490;-62
2022/03/13 03:21:25;;;;;;;127.43;46.22;;;;;;;;;;6306636;28;20044;-62
2022/03/13 03:24:26;;;;;;;143.20;52.63;;;;;;;;;;6301023;28;20579;-63
2022/03/13 03:27:30;;;;;;;157.30;58.60;;;;;;;;;;6302713;28;20080;-62
2022/03/13 03:30:31;;;;;;;160.25;59.55;;;;;;;;;;6302488;28;20052;-62
2022/03/13 03:33:32;;;;;;;160.30;59.88;;;;;;;;;;6291754;28;20056;-62
2022/03/13 03:36:33;;;;;;;156.38;55.58;;;;;;;;;;6299435;28;20123;-62
2022/03/13 03:39:33;;;;;;;169.00;59.22;;;;;;;;;;6294321;28;20128;-62
2022/03/13 03:42:35;;;;;;;160.18;57.72;;;;;;;;;;6302059;28;20136;-62
2022/03/13 03:45:36;;;;;;;145.68;54.50;;;;;;;;;;6300559;28;20837;-62
2022/03/13 03:48:36;;;;;;;161.77;59.40;;;;;;;;;;6301152;28;20050;-63
2022/03/13 03:51:38;;;;;;;150.43;55.75;;;;;;;;;;6300203;28;20055;-63
2022/03/13 03:54:38;;;;;;;153.77;56.70;;;;;;;;;;6301034;28;20040;-62
2022/03/13 03:57:39;;;;;;;148.45;53.42;;;;;;;;;;6296721;28;20051;-62
2022/03/13 04:00:40;;;;;;;159.65;56.17;;;;;;;;;;6298499;28;20551;-63
2022/03/13 04:03:40;;;;;;;150.55;55.58;;;;;;;;;;6295377;28;20489;-63
2022/03/13 04:06:41;;;;;;;148.55;56.00;;;;;;;;;;6303916;28;20950;-61
2022/03/13 04:09:42;;;;;;;139.27;51.70;;;;;;;;;;6302230;28;20072;-62
2022/03/13 04:12:43;;;;;;;153.80;56.78;;;;;;;;;;6298613;28;20188;-62
2022/03/13 04:15:44;;;;;;;153.10;56.17;;;;;;;;;;6301069;28;20513;-62
2022/03/13 04:18:44;;;;;;;149.75;57.15;;;;;;;;;;6301330;28;20044;-61
2022/03/13 04:21:45;;;;;;;150.30;54.22;;;;;;;;;;6299740;28;20101;-62
2022/03/13 04:24:46;;;;;;;146.95;52.42;;;;;;;;;;6296951;28;20052;-61
2022/03/13 04:27:47;;;;;;;139.85;53.35;;;;;;;;;;6297250;28;20461;-61
2022/03/13 04:30:52;;;;;;;149.15;55.92;;;;;;;;;;6299090;28;20074;-61
2022/03/13 04:33:52;;;;;;;141.82;54.70;;;;;;;;;;6295959;28;20720;-62
2022/03/13 04:36:53;;;;;;;147.90;53.60;;;;;;;;;;6297152;28;20035;-61
2022/03/13 04:39:55;;;;;;;142.65;52.35;;;;;;;;;;6301259;28;20048;-61
2022/03/13 04:42:55;;;;;;;137.07;53.23;;;;;;;;;;6300395;28;20484;-60
2022/03/13 04:45:56;;;;;;;140.75;51.70;;;;;;;;;;6300739;28;20088;-63
2022/03/13 04:48:57;;;;;;;153.15;54.65;;;;;;;;;;6299934;28;20040;-60
2022/03/13 04:51:57;;;;;;;152.93;52.75;;;;;;;;;;6297329;28;20040;-62
2022/03/13 04:54:58;;;;;;;145.35;54.40;;;;;;;;;;6291355;28;20423;-61
2022/03/13 04:57:59;;;;;;;161.93;54.83;;;;;;;;;;6297907;28;20049;-61
2022/03/13 05:01:00;;;;;;;154.25;54.38;;;;;;;;;;6298667;28;20461;-62
2022/03/13 05:04:00;;;;;;;147.80;56.60;;;;;;;;;;6300039;28;20044;-61
2022/03/13 05:07:01;;;;;;;145.13;54.47;;;;;;;;;;6297046;28;20387;-62
2022/03/13 05:10:03;;;;;;;151.63;52.95;;;;;;;;;;6299735;28;20094;-62
2022/03/13 05:13:05;;;;;;;147.05;54.30;;;;;;;;;;6292982;28;20089;-62
2022/03/13 05:16:06;;;;;;;;;;;;;;;;;;6302585;28;20551;-61
2022/03/13 05:19:06;;;;;;;137.55;49.90;;;;;;;;;;6296995;28;19994;-62
2022/03/13 05:22:07;;;;;;;138.23;49.38;;;;;;;;;;6298517;28;20132;-62
2022/03/13 05:25:08;;;;;;;137.82;51.78;;;;;;;;;;6297186;28;20147;-61
2022/03/13 05:28:09;;;;;;;135.52;50.90;;;;;;;;;;6295728;28;20047;-61
2022/03/13 05:31:10;;;;;;;128.98;49.55;;;;;;;;;;6297396;28;20070;-61
2022/03/13 05:34:11;;;;;;;145.95;51.33;;;;;;;;;;6297778;28;20490;-61
2022/03/13 05:37:11;;;;;;;139.38;51.65;;;;;;;;;;6294273;28;20052;-61
2022/03/13 05:40:14;;;;;;;139.27;50.33;;;;;;;;;;6295407;28;20115;-62
2022/03/13 05:43:15;;;;;;;130.00;48.50;;;;;;;;;;6294121;28;20056;-61
2022/03/13 05:46:16;;;;;;;134.82;51.35;;;;;;;;;;6331347;27;20040;-62
2022/03/13 05:49:17;;;;;;;131.80;49.00;;;;;;;;;;6296357;28;20071;-61
2022/03/13 05:52:18;;;;;;;135.25;48.85;;;;;;;;;;6293402;28;20067;-62
2022/03/13 05:55:19;;;;;;;132.82;49.15;;;;;;;;;;6292973;28;20054;-61
2022/03/13 05:58:19;;;;;;;135.70;50.45;;;;;;;;;;6299143;28;20435;-62
2022/03/13 06:01:20;;;;;;;134.57;51.38;;;;;;;;;;6305345;28;20138;-61
2022/03/13 06:04:22;;;;;;;136.38;49.47;;;;;;;;;;6301991;28;20052;-61
2022/03/13 06:07:23;;;;;;;130.40;50.65;;;;;;;;;;6304325;28;20052;-62
2022/03/13 06:10:25;;;;;;;128.50;48.80;;;;;;;;;;6308968;28;20494;-61
2022/03/13 06:13:26;;;;;;;134.73;49.13;;;;;;;;;;6299554;28;20060;-62
2022/03/13 06:16:27;;;;;;;138.15;51.33;;;;;;;;;;6298359;28;20056;-62
2022/03/13 06:19:27;;;;;;;136.10;51.00;;;;;;;;;;6288765;28;20167;-62
2022/03/13 06:22:28;;;;;;;138.40;50.38;;;;;;;;;;6293194;28;20051;-61
2022/03/13 06:25:28;;;;;;;139.68;51.95;;;;;;;;;;6297787;28;20426;-61
2022/03/13 06:28:30;;;;;;;136.85;52.92;;;;;;;;;;6296646;28;20052;-61
2022/03/13 06:31:31;;;;;;;138.40;53.70;;;;;;;;;;6297576;28;20048;-62
2022/03/13 06:34:32;;;;;;;148.23;55.72;;;;;;;;;;6292248;28;20048;-62
2022/03/13 06:37:32;;;;;;;137.27;55.15;;;;;;;;;;6293413;28;20052;-61
2022/03/13 06:40:34;;;;;;;142.98;55.20;;;;;;;;;;6295444;28;20078;-62
2022/03/13 06:43:35;;;;;;;141.90;57.63;;;;;;;;;;6300859;28;20524;-61
2022/03/13 06:46:36;;;;;;;149.00;55.72;;;;;;;;;;6304384;28;20094;-61
2022/03/13 06:49:36;;;;;;;146.48;57.95;;;;;;;;;;6313949;28;20456;-61
2022/03/13 06:52:37;;;;;;;151.07;57.05;;;;;;;;;;6311659;28;20036;-62
2022/03/13 06:55:38;;;;;;;157.50;60.85;;;;;;;;;;6313550;28;20075;-62
2022/03/13 06:58:41;;;;;;;200.35;67.78;;;;;;;;;;6311865;28;20047;-62
2022/03/13 07:01:42;;;;;;;166.45;62.90;;;;;;;;;;6314852;28;20135;-62
2022/03/13 07:04:42;;;;;;;176.45;63.90;;;;;;;;;;6312793;28;20044;-62
2022/03/13 07:07:43;;;;;;;171.40;62.70;;;;;;;;;;6315683;28;20206;-63
2022/03/13 07:10:44;;;;;;;163.25;60.58;;;;;;;;;;6300847;28;20513;-63
2022/03/13 07:13:45;;;;;;;171.73;62.90;;;;;;;;;;6296717;28;21595;-62
2022/03/13 07:16:46;;;;;;;178.75;63.10;;;;;;;;;;6290987;28;20049;-62
2022/03/13 07:22:51;;;;;;;162.40;56.13;;;;;;;;;;6202706;28;20066;-61
2022/03/13 07:25:52;;;;;;;140.63;48.53;;;;;;;;;;6211228;28;20492;-61
2022/03/13 07:28:52;;;;;;;112.40;42.45;;;;;;;;;;6194384;28;20484;-67
2022/03/13 07:31:56;;;;;;;102.45;39.90;;;;;;;;;;6217378;28;20081;-60
2022/03/13 07:34:56;;;;;;;142.93;49.55;;;;;;;;;;6217017;28;20061;-62
2022/03/13 07:37:57;;;;;;;142.35;49.45;;;;;;;;;;6216856;28;20080;-63
2022/03/13 07:40:58;;;;;;;129.43;46.95;;;;;;;;;;6215042;28;20567;-62
2022/03/13 07:43:59;;;;;;;202.77;66.30;;;;;;;;;;6214741;28;21006;-61
2022/03/13 07:46:59;;;;;;;99.47;37.72;;;;;;;;;;6221966;28;20129;-61
2022/03/13 07:50:00;;;;;;;100.05;37.72;;;;;;;;;;6220936;28;20162;-61
2022/03/13 07:53:01;;;;;;;89.95;36.13;;;;;;;;;;6222516;28;20760;-62
2022/03/13 07:56:01;;;;;;;99.32;34.92;;;;;;;;;;6222201;28;20735;-62
2022/03/13 07:59:02;;;;;;;110.18;43.22;;;;;;;;;;6220176;28;20192;-62
2022/03/13 08:02:03;;;;;;;86.22;35.78;;;;;;;;;;6220636;28;20050;-62
2022/03/13 08:05:04;;;;;;;89.30;35.17;;;;;;;;;;6220890;28;20053;-62
2022/03/13 08:08:05;;;;;;;78.72;32.38;;;;;;;;;;6214783;28;20116;-62
2022/03/13 08:11:06;;;;;;;76.60;32.65;;;;;;;;;;6219116;28;20056;-61
2022/03/13 08:14:07;;;;;;;82.53;31.95;;;;;;;;;;6220747;28;20056;-64
2022/03/13 08:17:08;;;;;;;87.32;35.10;;;;;;;;;;6220360;28;20128;-61
2022/03/13 08:20:10;;;;;;;88.10;36.30;;;;;;;;;;6218019;28;20072;-63
2022/03/13 08:23:10;;;;;;;86.10;35.45;;;;;;;;;;6209403;28;20769;-63
2022/03/13 08:26:12;;;;;;;82.90;33.80;;;;;;;;;;6220040;28;20053;-61
2022/03/13 08:29:13;;;;;;;85.95;34.70;;;;;;;;;;6217983;28;20073;-64
2022/03/13 08:32:15;;;;;;;81.03;33.88;;;;;;;;;;6218538;28;20810;-63
2022/03/13 08:35:17;;;;;;;96.78;37.72;;;;;;;;;;6219968;28;20061;-63
2022/03/13 08:38:18;;;;;;;91.83;38.70;;;;;;;;;;6219096;28;20068;-63
2022/03/13 08:41:18;;;;;;;85.95;35.03;;;;;;;;;;6217616;28;20307;-62
2022/03/13 08:44:19;;;;;;;77.07;31.30;;;;;;;;;;6217896;28;20147;-62
2022/03/13 08:47:20;;;;;;;104.28;39.13;;;;;;;;;;6218801;28;20056;-63
2022/03/13 08:50:21;;;;;;;70.40;28.48;;;;;;;;;;6217037;28;20452;-62
2022/03/13 08:53:21;;;;;;;57.22;24.75;;;;;;;;;;6217987;28;20056;-64
2022/03/13 08:56:22;;;;;;;61.28;26.05;;;;;;;;;;6217196;28;20062;-64
2022/03/13 08:59:23;;;;;;;59.55;25.35;;;;;;;;;;6215825;28;20140;-64
2022/03/13 09:02:24;;;;;;;51.53;21.33;;;;;;;;;;6217631;28;20412;-64
2022/03/13 09:05:25;;;;;;;57.55;24.77;;;;;;;;;;6217103;28;20050;-62
2022/03/13 09:08:25;;;;;;;55.55;24.30;;;;;;;;;;6218233;28;20046;-61
2022/03/13 09:11:26;;;;;;;62.13;24.02;;;;;;;;;;6216863;28;20038;-61
2022/03/13 09:14:27;;;;;;;51.63;21.50;;;;;;;;;;6218001;28;20503;-61
2022/03/13 09:17:27;;;;;;;49.90;21.45;;;;;;;;;;6217901;28;20569;-63
2022/03/13 09:20:28;;;;;;;50.97;21.60;;;;;;;;;;6214370;28;20054;-64
2022/03/13 09:23:29;;;;;;;55.55;24.92;;;;;;;;;;6217346;28;20050;-63
2022/03/13 09:26:30;;;;;;;57.08;23.40;;;;;;;;;;6218125;28;20441;-61
2022/03/13 09:29:30;;;;;;;56.70;22.42;;;;;;;;;;6216472;28;20046;-62
2022/03/13 09:32:31;;;;;;;50.75;22.95;;;;;;;;;;6218403;28;20046;-62
2022/03/13 09:35:31;;;;;;;45.88;19.30;;;;;;;;;;6217592;28;20144;-63
2022/03/13 09:38:33;;;;;;;44.38;20.15;;;;;;;;;;6215904;28;20527;-61
2022/03/13 09:41:34;;;;;;;47.45;21.50;;;;;;;;;;6215433;28;20133;-63
2022/03/13 09:44:35;;;;;;;54.88;23.63;;;;;;;;;;6215511;28;20049;-61
2022/03/13 09:47:37;;;;;;;42.67;19.58;;;;;;;;;;6217487;28;20523;-63
2022/03/13 09:50:39;;;;;;;52.75;22.45;;;;;;;;;;6215843;28;20432;-62
2022/03/13 09:53:40;;;;;;;49.13;21.83;;;;;;;;;;6215380;28;20492;-63
2022/03/13 09:56:41;;;;;;;46.92;20.92;;;;;;;;;;6216203;28;20053;-62
2022/03/13 09:59:46;;;;;;;40.00;19.63;;;;;;;;;;6215552;28;20485;-62
2022/03/13 10:02:47;;;;;;;37.20;16.38;;;;;;;;;;6215532;28;20046;-63
2022/03/13 10:05:50;;;;;;;27.83;12.53;;;;;;;;;;6213451;28;20050;-63
2022/03/13 10:08:50;;;;;;;;;;;;;;;;;;6215220;28;20054;-63
2022/03/13 10:12:04;;;;;;;24.08;11.18;;;;;;;;;;6215150;28;19925;-63
2022/03/13 10:15:07;;;;;;;111.35;41.55;;;;;;;;;;6217369;28;20049;-63
2022/03/13 10:18:11;;;;;;;;;;;;;;;;;;6217890;28;20053;-63
2022/03/13 10:21:18;;;;;;;33.88;15.38;;;;;;;;;;6203103;28;19957;-63
2022/03/13 10:24:19;;;;;;;29.83;12.60;;;;;;;;;;6203649;28;20061;-63
2022/03/13 10:27:23;;;;;;;31.27;13.75;;;;;;;;;;6202890;28;20125;-63
2022/03/13 10:30:25;;;;;;;26.38;10.30;;;;;;;;;;6195756;28;20563;-63
2022/03/13 10:33:49;;;;;;;20.05;9.00;;;;;;;;;;6201800;28;20056;-63
2022/03/13 10:36:50;;;;;;;21.92;9.98;;;;;;;;;;6200980;28;20046;-64
2022/03/13 10:40:08;;;;;;;23.33;10.55;;;;;;;;;;6202295;28;20053;-63
2022/03/13 10:43:09;;;;;;;25.98;10.93;;;;;;;;;;6196080;28;20057;-63
2022/03/13 10:46:10;;;;;;;30.55;12.77;;;;;;;;;;6203168;28;20078;-63
2022/03/13 10:49:13;;;;;;;29.67;13.23;;;;;;;;;;6202802;28;20050;-63
2022/03/13 10:52:41;;;;;;;27.58;11.18;;;;;;;;;;6195764;28;20480;-63
2022/03/13 10:55:43;;;;;;;30.75;11.95;;;;;;;;;;6198251;28;20093;-63
2022/03/13 10:58:45;;;;;;;23.65;11.07;;;;;;;;;;6199633;28;20072;-64
2022/03/13 11:02:17;;;;;;;27.20;12.25;;;;;;;;;;6196731;28;20095;-64
2022/03/13 11:05:18;;;;;;;25.15;10.82;;;;;;;;;;6200508;28;20163;-63
2022/03/13 11:08:18;;;;;;;25.00;10.82;;;;;;;;;;6200511;28;20068;-63
2022/03/13 11:11:20;;;;;;;19.88;10.70;;;;;;;;;;6198349;28;20057;-63
2022/03/13 11:14:21;;;;;;;25.67;11.60;;;;;;;;;;6201909;28;20053;-62
2022/03/13 11:17:25;;;;;;;24.40;11.35;;;;;;;;;;6199141;28;20305;-63
2022/03/13 11:20:26;;;;;;;24.88;11.75;;;;;;;;;;6201906;28;20058;-63
2022/03/13 11:23:30;;;;;;;28.73;12.32;;;;;;;;;;6204887;28;20149;-63
2022/03/13 11:26:31;;;;;;;30.23;13.48;;;;;;;;;;6204366;28;20060;-62
2022/03/13 11:29:44;;;;;;;28.57;13.57;;;;;;;;;;6206646;28;20654;-64
2022/03/13 11:32:47;;;;;;;;;;;;;;;;;;6204317;28;20439;-62
2022/03/13 11:35:48;;;;;;;26.55;11.48;;;;;;;;;;6205433;28;20359;-62
2022/03/13 11:38:58;;;;;;;21.08;10.20;;;;;;;;;;6204481;28;20052;-64
2022/03/13 11:42:01;;;;;;;23.55;10.60;;;;;;;;;;6202081;28;20050;-63
2022/03/13 11:45:10;;;;;;;;;;;;;;;;;;6204863;28;20112;-62
2022/03/13 11:48:14;;;;;;;20.52;10.10;;;;;;;;;;6202301;28;19936;-61
2022/03/13 11:51:28;;;;;;;21.25;9.80;;;;;;;;;;6203666;28;20058;-64
2022/03/13 11:54:50;;;;;;;16.30;7.20;;;;;;;;;;6204614;28;20575;-63
2022/03/13 11:58:01;;;;;;;19.40;8.07;;;;;;;;;;6205613;28;20510;-64
2022/03/13 12:01:06;;;;;;;15.77;7.55;;;;;;;;;;6200576;28;20058;-63
2022/03/13 12:04:07;;;;;;;19.60;8.85;;;;;;;;;;6204207;28;20045;-63
2022/03/13 12:07:27;;;;;;;13.68;5.88;;;;;;;;;;6204598;28;20694;-63
2022/03/13 12:10:35;;;;;;;13.48;6.28;;;;;;;;;;6202849;28;20879;-63
2022/03/13 12:13:47;;;;;;;7.70;3.78;;;;;;;;;;6203220;28;20049;-63
2022/03/13 12:17:05;;;;;;;7.55;2.92;;;;;;;;;;6205338;28;20058;-64
2022/03/13 12:20:06;;;;;;;6.93;3.85;;;;;;;;;;6205110;28;20061;-63
2022/03/13 12:23:07;;;;;;;9.18;4.20;;;;;;;;;;6201776;28;20050;-64
2022/03/13 12:26:42;;;;;;;9.07;4.55;;;;;;;;;;6204432;28;20054;-63
2022/03/13 12:29:48;;;;;;;8.50;4.15;;;;;;;;;;6191187;28;20050;-64
2022/03/13 12:33:03;;;;;;;8.27;3.30;;;;;;;;;;6201055;28;20103;-64
2022/03/13 12:36:04;;;;;;;8.07;3.25;;;;;;;;;;6203892;28;20053;-64
2022/03/13 12:39:12;;;;;;;8.17;3.20;;;;;;;;;;6202023;28;20073;-64
2022/03/13 12:42:20;;;;;;;9.80;4.53;;;;;;;;;;6200860;28;20073;-64
2022/03/13 12:45:22;;;;;;;17.10;7.35;;;;;;;;;;6202442;28;20057;-64
2022/03/13 12:48:23;;;;;;;7.10;3.47;;;;;;;;;;6204063;28;20169;-64
2022/03/13 12:51:47;;;;;;;7.43;3.33;;;;;;;;;;6201189;28;20053;-64
2022/03/13 12:54:54;;;;;;;8.75;3.35;;;;;;;;;;6204511;28;20046;-63
2022/03/13 12:57:57;;;;;;;7.40;2.90;;;;;;;;;;6203367;28;20107;-63
2022/03/13 13:00:57;;;;;;;9.50;4.82;;;;;;;;;;6199991;28;20073;-64
2022/03/13 13:03:59;;;;;;;8.93;4.10;;;;;;;;;;6201903;28;20054;-63
2022/03/13 13:06:59;;;;;;;9.85;4.32;;;;;;;;;;6203819;28;20050;-64
2022/03/13 13:10:07;;;;;;;11.45;4.50;;;;;;;;;;6202021;28;20054;-64
2022/03/13 13:13:08;;;;;;;10.00;3.97;;;;;;;;;;6205132;28;20050;-63
2022/03/13 13:16:09;;;;;;;9.02;3.97;;;;;;;;;;6203853;28;20050;-65
2022/03/13 13:19:10;;;;;;;7.53;3.80;;;;;;;;;;6201314;28;20050;-65
2022/03/13 13:22:11;;;;;;;9.93;4.63;;;;;;;;;;6201026;28;20084;-64
2022/03/13 13:25:19;;;;;;;8.65;3.47;;;;;;;;;;6205456;28;20064;-64
2022/03/13 13:28:20;;;;;;;9.32;4.15;;;;;;;;;;6202277;28;20045;-64
2022/03/13 13:31:22;;;;;;;7.93;4.03;;;;;;;;;;6199503;28;20069;-64
2022/03/13 13:34:23;;;;;;;9.40;4.15;;;;;;;;;;6201764;28;20192;-64
2022/03/13 13:37:24;;;;;;;8.77;4.30;;;;;;;;;;6203059;28;20042;-65
2022/03/13 13:40:26;;;;;;;9.50;4.75;;;;;;;;;;6199206;28;20135;-67
2022/03/13 13:43:44;;;;;;;11.38;5.25;;;;;;;;;;6199864;28;20085;-66
2022/03/13 13:46:45;;;;;;;9.50;4.57;;;;;;;;;;6204105;28;20085;-66
2022/03/13 13:49:46;;;;;;;10.25;4.72;;;;;;;;;;6206311;28;20112;-67
2022/03/13 13:53:01;;;;;;;9.63;4.15;;;;;;;;;;6205544;28;20104;-64
2022/03/13 13:56:10;;;;;;;12.15;5.10;;;;;;;;;;6208271;28;20053;-67
2022/03/13 13:59:29;;;;;;;11.57;5.20;;;;;;;;;;6207123;28;20077;-72
2022/03/13 14:02:29;;;;;;;10.65;5.40;;;;;;;;;;6203378;28;20057;-65
2022/03/13 14:05:32;;;;;;;12.80;6.13;;;;;;;;;;6204028;28;20072;-64
2022/03/13 14:08:33;;;;;;;13.98;6.05;;;;;;;;;;6205802;28;20054;-64
2022/03/13 14:11:35;;;;;;;11.38;5.28;;;;;;;;;;6203160;28;20092;-66
2022/03/13 14:14:36;;;;;;;14.13;5.97;;;;;;;;;;6203208;28;20057;-65
2022/03/13 14:17:36;;;;;;;9.88;4.70;;;;;;;;;;6206787;28;20050;-63
2022/03/13 14:20:37;;;;;;;10.95;5.10;;;;;;;;;;6204394;28;20428;-65
2022/03/13 14:23:38;;;;;;;12.75;6.40;;;;;;;;;;6203876;28;20078;-66
2022/03/13 14:26:39;;;;;;;10.25;5.30;;;;;;;;;;6204600;28;20079;-62
2022/03/13 14:29:39;;;;;;;10.25;5.07;;;;;;;;;;6206513;28;20111;-66
2022/03/13 14:32:43;;;;;;;11.07;5.93;;;;;;;;;;6203647;28;20045;-63
2022/03/13 14:35:43;;;;;;;11.88;5.75;;;;;;;;;;6206649;28;20575;-63
2022/03/13 14:38:48;;;;;;;10.48;5.55;;;;;;;;;;6207858;28;20065;-63
2022/03/13 14:41:49;;;;;;;12.75;5.60;;;;;;;;;;6203690;28;20497;-64
2022/03/13 14:44:50;;;;;;;14.02;6.13;;;;;;;;;;6203185;28;20545;-63
2022/03/13 14:47:51;;;;;;;12.23;5.82;;;;;;;;;;6206884;28;20050;-65
2022/03/13 14:50:52;;;;;;;13.10;5.22;;;;;;;;;;6205649;28;20068;-64
2022/03/13 14:53:53;;;;;;;9.90;5.07;;;;;;;;;;6208676;28;20073;-64
2022/03/13 14:56:54;;;;;;;18.83;6.93;;;;;;;;;;6213259;28;20454;-72
2022/03/13 14:59:55;;;;;;;14.20;6.80;;;;;;;;;;6212759;28;20077;-64
2022/03/13 15:02:56;;;;;;;13.85;6.78;;;;;;;;;;6207697;28;20997;-65
2022/03/13 15:05:57;;;;;;;14.43;6.47;;;;;;;;;;6211316;28;20574;-64
2022/03/13 15:08:57;;;;;;;14.45;6.65;;;;;;;;;;6210561;28;20042;-67
2022/03/13 15:11:58;;;;;;;13.93;6.70;;;;;;;;;;6207292;28;20053;-64
2022/03/13 15:14:59;;;;;;;13.90;6.93;;;;;;;;;;6210657;28;20129;-67
2022/03/13 15:18:00;;;;;;;16.08;7.45;;;;;;;;;;6209728;28;20064;-68
2022/03/13 15:21:01;;;;;;;16.17;7.72;;;;;;;;;;6209526;28;20053;-68
2022/03/13 15:24:02;;;;;;;15.82;7.78;;;;;;;;;;6209060;28;20058;-67
2022/03/13 15:27:04;;;;;;;17.13;8.10;;;;;;;;;;6209520;28;20546;-66
2022/03/13 15:30:06;;;;;;;15.27;7.07;;;;;;;;;;6211523;28;20046;-67
2022/03/13 15:33:06;;;;;;;14.35;7.47;;;;;;;;;;6207544;28;20080;-66
2022/03/13 15:36:07;;;;;;;17.52;9.02;;;;;;;;;;6210189;28;20042;-66
2022/03/13 15:39:08;;;;;;;17.10;8.80;;;;;;;;;;6211339;28;20054;-65
2022/03/13 15:42:08;;;;;;;19.65;9.40;;;;;;;;;;6208223;28;20081;-66
2022/03/13 15:45:10;;;;;;;23.40;11.27;;;;;;;;;;6210314;28;20054;-65
2022/03/13 15:48:11;;;;;;;28.83;12.35;;;;;;;;;;6206996;28;20144;-65
2022/03/13 15:51:11;;;;;;;23.60;11.35;;;;;;;;;;6208635;28;20104;-64
2022/03/13 15:54:13;;;;;;;23.13;11.02;;;;;;;;;;6207910;28;20093;-64
2022/03/13 15:57:13;;;;;;;24.52;11.80;;;;;;;;;;6211015;28;20041;-68
2022/03/13 16:00:15;;;;;;;23.92;10.95;;;;;;;;;;6210697;28;20060;-67
2022/03/13 16:03:15;;;;;;;24.27;11.43;;;;;;;;;;6208095;28;20080;-67
2022/03/13 16:06:17;;;;;;;22.15;11.05;;;;;;;;;;6208246;28;20050;-66
2022/03/13 16:09:17;;;;;;;24.98;12.32;;;;;;;;;;6208849;28;20050;-68
2022/03/13 16:12:26;;;;;;;30.13;13.30;;;;;;;;;;6205007;28;20053;-67
2022/03/13 16:15:26;;;;;;;30.17;13.05;;;;;;;;;;6205211;28;20056;-67
2022/03/13 16:18:27;;;;;;;25.60;12.73;;;;;;;;;;6207214;28;20049;-68
2022/03/13 16:21:28;;;;;;;32.20;14.18;;;;;;;;;;6203361;28;20057;-65
2022/03/13 16:24:29;;;;;;;34.67;15.13;;;;;;;;;;6206426;28;20061;-69
2022/03/13 16:27:30;;;;;;;36.53;16.83;;;;;;;;;;6208223;28;20093;-67
2022/03/13 16:30:31;;;;;;;37.05;18.30;;;;;;;;;;6206484;28;20046;-64
2022/03/13 16:33:33;;;;;;;38.92;18.85;;;;;;;;;;6207422;28;20060;-64
2022/03/13 16:36:35;;;;;;;41.85;18.88;;;;;;;;;;6210073;28;20542;-64
2022/03/13 16:39:36;;;;;;;44.47;20.80;;;;;;;;;;6209618;28;20049;-65
2022/03/13 16:42:37;;;;;;;43.28;19.63;;;;;;;;;;6207129;28;20100;-67
2022/03/13 16:45:40;;;;;;;43.85;19.60;;;;;;;;;;6208040;28;20780;-67
2022/03/13 16:48:41;;;;;;;57.75;25.88;;;;;;;;;;6206951;28;20599;-64
2022/03/13 16:51:42;;;;;;;56.67;23.33;;;;;;;;;;6206956;28;20050;-64
2022/03/13 16:54:43;;;;;;;46.30;23.33;;;;;;;;;;6205514;28;20104;-66
2022/03/13 16:57:44;;;;;;;55.35;23.83;;;;;;;;;;6207286;28;20354;-64
2022/03/13 17:00:45;;;;;;;48.00;20.63;;;;;;;;;;6203778;28;20510;-63
2022/03/13 17:03:46;;;;;;;39.50;21.00;;;;;;;;;;6204072;28;20056;-65
2022/03/13 17:06:46;;;;;;;44.25;22.25;;;;;;;;;;6206828;28;20045;-63
2022/03/13 17:09:47;;;;;;;48.95;24.40;;;;;;;;;;6207391;28;20045;-68
2022/03/13 17:12:48;;;;;;;52.58;26.17;;;;;;;;;;6204452;28;20045;-64
2022/03/13 17:15:49;;;;;;;54.95;25.17;;;;;;;;;;6208287;28;20417;-65
2022/03/13 17:18:51;;;;;;;55.35;25.02;;;;;;;;;;6209141;28;20045;-63
2022/03/13 17:21:52;;;;;;;49.22;22.52;;;;;;;;;;6204558;28;20058;-63
2022/03/13 17:24:53;;;;;;;52.00;22.58;;;;;;;;;;6204958;28;20619;-65
2022/03/13 17:27:55;;;;;;;45.45;21.45;;;;;;;;;;6208680;28;20058;-63
2022/03/13 17:30:56;;;;;;;51.77;22.63;;;;;;;;;;6203764;28;20160;-67
2022/03/13 17:33:56;;;;;;;56.90;22.80;;;;;;;;;;6205103;28;20045;-65
2022/03/13 17:36:58;;;;;;;56.50;24.33;;;;;;;;;;6210103;28;20049;-63
2022/03/13 17:39:58;;;;;;;50.90;22.17;;;;;;;;;;6209656;28;20049;-62
2022/03/13 17:42:59;;;;;;;47.92;22.17;;;;;;;;;;6206586;28;20193;-61
2022/03/13 17:46:00;;;;;;;54.28;22.58;;;;;;;;;;6208469;28;20378;-63